Time;durP1;ratioP1;P1;durP2;ratioP2;P2;SDS_P1;SDS_P2;PMS_P1;PMS_P2;Temp;Humidity;BMP_temperature;BMP_pressure;BME280_temperature;BME280_humidity;BME280_pressure;Samples;Min_cycle;Max_cycle;Signal;HPM_P1;HPM_P2
2022/12/04 00:02:24;;;;;;;8.48;7.97;;;;;;;;;;5055795;28;20053;-94
2022/12/04 00:04:51;;;;;;;7.25;6.80;;;;;;;;;;5055820;28;20049;-94
2022/12/04 00:07:18;;;;;;;11.10;10.35;;;;;;;;;;5055683;28;20052;-94
2022/12/04 00:09:45;;;;;;;9.57;9.07;;;;;;;;;;5056058;28;20147;-94
2022/12/04 00:12:12;;;;;;;9.63;8.73;;;;;;;;;;5055856;28;20049;-94
2022/12/04 00:14:39;;;;;;;8.35;7.78;;;;;;;;;;5055234;28;20053;-94
2022/12/04 00:17:05;;;;;;;19.83;14.55;;;;;;;;;;5055701;28;20480;-94
2022/12/04 00:19:32;;;;;;;14.32;12.88;;;;;;;;;;5055781;28;20098;-94
2022/12/04 00:21:59;;;;;;;9.07;8.40;;;;;;;;;;5056064;28;20052;-94
2022/12/04 00:24:25;;;;;;;11.70;10.63;;;;;;;;;;5056490;28;20049;-96
2022/12/04 00:26:53;;;;;;;10.90;10.15;;;;;;;;;;5071245;28;20080;-96
2022/12/04 00:29:21;;;;;;;9.68;9.00;;;;;;;;;;5061209;28;20073;-96
2022/12/04 00:31:47;;;;;;;11.52;10.27;;;;;;;;;;5059296;28;20056;-96
2022/12/04 00:34:14;;;;;;;11.63;10.68;;;;;;;;;;5057283;28;20049;-96
2022/12/04 00:36:41;;;;;;;10.10;8.10;;;;;;;;;;5056269;28;20045;-96
2022/12/04 00:39:07;;;;;;;12.20;11.40;;;;;;;;;;5055186;28;20055;-95
2022/12/04 00:41:34;;;;;;;7.43;6.82;;;;;;;;;;5055320;28;20045;-95
2022/12/04 00:44:01;;;;;;;7.28;6.63;;;;;;;;;;5054977;28;20412;-95
2022/12/04 00:46:29;;;;;;;10.93;10.10;;;;;;;;;;5055353;28;20056;-95
2022/12/04 00:48:57;;;;;;;10.63;9.77;;;;;;;;;;5055137;28;20080;-94
2022/12/04 00:51:24;;;;;;;11.43;10.27;;;;;;;;;;5056277;28;20059;-95
2022/12/04 00:53:52;;;;;;;13.63;10.65;;;;;;;;;;5054753;28;20048;-94
2022/12/04 00:56:19;;;;;;;10.80;9.98;;;;;;;;;;5054616;28;20056;-94
2022/12/04 00:58:46;;;;;;;12.05;10.85;;;;;;;;;;5053664;28;20496;-94
2022/12/04 01:01:14;;;;;;;12.68;11.65;;;;;;;;;;5054825;28;20049;-94
2022/12/04 01:03:42;;;;;;;10.43;9.73;;;;;;;;;;5054803;28;20052;-94
2022/12/04 01:06:17;;;;;;;11.85;10.75;;;;;;;;;;5054296;28;20041;-93
2022/12/04 01:08:44;;;;;;;14.07;13.05;;;;;;;;;;5054718;28;20068;-94
2022/12/04 01:11:10;;;;;;;11.02;10.18;;;;;;;;;;5054738;28;20052;-94
2022/12/04 01:13:37;;;;;;;11.25;10.48;;;;;;;;;;5054579;28;20044;-93
2022/12/04 01:16:03;;;;;;;19.45;12.60;;;;;;;;;;5054440;28;20053;-93
2022/12/04 01:18:30;;;;;;;12.05;10.90;;;;;;;;;;5054427;28;20118;-93
2022/12/04 01:20:58;;;;;;;13.88;13.00;;;;;;;;;;5054116;28;20515;-93
2022/12/04 01:23:24;;;;;;;9.38;8.52;;;;;;;;;;5054330;28;20052;-92
2022/12/04 01:25:52;;;;;;;12.13;11.27;;;;;;;;;;5054397;28;20053;-94
2022/12/04 01:28:18;;;;;;;12.52;11.75;;;;;;;;;;5054017;28;20135;-94
2022/12/04 01:30:45;;;;;;;15.07;14.02;;;;;;;;;;5054102;28;20040;-95
2022/12/04 01:33:11;;;;;;;10.18;9.35;;;;;;;;;;5054509;28;20056;-94
2022/12/04 01:35:38;;;;;;;11.82;10.80;;;;;;;;;;5054447;28;20045;-95
2022/12/04 01:38:06;;;;;;;11.55;10.55;;;;;;;;;;5054341;28;20068;-93
2022/12/04 01:40:32;;;;;;;10.55;9.95;;;;;;;;;;5053725;28;20484;-94
2022/12/04 01:42:59;;;;;;;8.90;8.20;;;;;;;;;;5053801;28;20071;-94
2022/12/04 01:45:37;;;;;;;9.25;8.20;;;;;;;;;;5054061;28;20452;-94
2022/12/04 01:48:08;;;;;;;12.95;10.18;;;;;;;;;;5054064;28;20098;-92
2022/12/04 01:50:34;;;;;;;11.15;10.45;;;;;;;;;;5053599;28;20053;-93
2022/12/04 01:53:01;;;;;;;10.30;9.52;;;;;;;;;;5053824;28;20106;-94
2022/12/04 01:55:29;;;;;;;10.05;9.38;;;;;;;;;;5054118;28;20052;-94
2022/12/04 01:57:56;;;;;;;7.93;7.25;;;;;;;;;;5053922;28;20404;-93
2022/12/04 02:00:23;;;;;;;10.13;9.50;;;;;;;;;;5054046;28;20049;-95
2022/12/04 02:02:49;;;;;;;11.25;10.65;;;;;;;;;;5053970;28;20045;-93
2022/12/04 02:05:17;;;;;;;9.60;9.00;;;;;;;;;;5053755;28;20060;-94
2022/12/04 02:07:45;;;;;;;8.65;7.80;;;;;;;;;;5053977;28;20098;-94
2022/12/04 02:10:12;;;;;;;10.23;9.52;;;;;;;;;;5053652;28;20095;-94
2022/12/04 02:12:47;;;;;;;9.70;9.07;;;;;;;;;;5053933;28;20052;-94
2022/12/04 02:15:16;;;;;;;11.15;9.43;;;;;;;;;;5053477;28;20064;-94
2022/12/04 02:17:47;;;;;;;10.50;8.90;;;;;;;;;;5053965;28;20068;-94
2022/12/04 02:20:21;;;;;;;7.15;6.05;;;;;;;;;;5055191;28;20479;-94
2022/12/04 02:22:58;;;;;;;9.40;7.50;;;;;;;;;;5054926;28;20048;-93
2022/12/04 02:25:30;;;;;;;9.18;8.30;;;;;;;;;;5059320;28;20052;-94
2022/12/04 02:28:02;;;;;;;9.73;9.00;;;;;;;;;;5063754;28;20052;-91
2022/12/04 02:30:30;;;;;;;5.82;5.43;;;;;;;;;;5054512;28;20036;-94
2022/12/04 02:33:00;;;;;;;9.18;8.68;;;;;;;;;;5075484;28;20059;-95
2022/12/04 02:35:27;;;;;;;10.82;9.95;;;;;;;;;;5071391;28;20144;-93
2022/12/04 02:37:56;;;;;;;7.13;6.53;;;;;;;;;;5072364;28;20037;-94
2022/12/04 02:40:25;;;;;;;8.43;6.90;;;;;;;;;;5075598;28;20059;-94
2022/12/04 02:42:54;;;;;;;8.18;7.78;;;;;;;;;;5038890;28;20451;-93
2022/12/04 02:45:25;;;;;;;8.40;7.65;;;;;;;;;;5033623;28;20053;-92
2022/12/04 02:47:51;;;;;;;;;;;;;;;;;;5035859;28;20132;-94
2022/12/04 02:50:21;;;;;;;6.57;5.15;;;;;;;;;;5035687;28;20426;-95
2022/12/04 02:52:48;;;;;;;5.18;4.93;;;;;;;;;;5033793;28;20053;-92
2022/12/04 02:55:17;;;;;;;4.90;3.97;;;;;;;;;;5033449;28;20460;-93
2022/12/04 02:57:45;;;;;;;7.63;7.05;;;;;;;;;;5033464;28;20049;-93
2022/12/04 03:00:12;;;;;;;10.80;7.68;;;;;;;;;;5033310;28;20053;-93
2022/12/04 03:02:42;;;;;;;11.60;10.48;;;;;;;;;;5032851;28;20060;-92
2022/12/04 03:05:10;;;;;;;14.10;5.88;;;;;;;;;;5033251;28;20413;-94
2022/12/04 03:07:39;;;;;;;8.80;8.13;;;;;;;;;;5033351;28;20060;-95
2022/12/04 03:10:08;;;;;;;11.63;10.40;;;;;;;;;;5033505;28;20058;-95
2022/12/04 03:12:38;;;;;;;9.30;8.75;;;;;;;;;;5033026;28;20505;-95
2022/12/04 03:15:08;;;;;;;8.10;7.70;;;;;;;;;;5033129;28;20049;-93
2022/12/04 03:17:37;;;;;;;8.25;7.60;;;;;;;;;;5033090;28;20103;-94
2022/12/04 03:20:08;;;;;;;7.95;7.45;;;;;;;;;;5033034;28;20050;-93
2022/12/04 03:22:36;;;;;;;13.98;9.88;;;;;;;;;;5036117;28;20139;-93
2022/12/04 03:25:05;;;;;;;9.68;8.77;;;;;;;;;;5036801;28;20053;-95
2022/12/04 03:27:35;;;;;;;8.23;7.75;;;;;;;;;;5036782;28;20049;-93
2022/12/04 03:30:04;;;;;;;10.00;9.18;;;;;;;;;;5036642;28;20050;-94
2022/12/04 03:32:33;;;;;;;10.45;9.60;;;;;;;;;;5036387;28;20489;-94
2022/12/04 03:35:02;;;;;;;11.07;10.25;;;;;;;;;;5036618;28;20057;-94
2022/12/04 03:37:34;;;;;;;8.00;7.45;;;;;;;;;;5036055;28;20050;-95
2022/12/04 03:40:02;;;;;;;10.43;9.77;;;;;;;;;;5035974;28;20485;-94
2022/12/04 03:42:33;;;;;;;7.15;6.65;;;;;;;;;;5036297;28;20053;-92
2022/12/04 03:45:01;;;;;;;11.90;9.50;;;;;;;;;;5036315;28;20050;-94
2022/12/04 03:47:31;;;;;;;9.13;8.43;;;;;;;;;;5036320;28;20096;-95
2022/12/04 03:50:00;;;;;;;8.70;8.07;;;;;;;;;;5035996;28;20060;-95
2022/12/04 03:52:28;;;;;;;12.23;11.45;;;;;;;;;;5035967;28;20053;-95
2022/12/04 03:54:59;;;;;;;9.88;9.32;;;;;;;;;;5035879;28;20492;-95
2022/12/04 03:57:28;;;;;;;9.77;9.27;;;;;;;;;;5036275;28;20049;-94
2022/12/04 03:59:58;;;;;;;5.70;5.40;;;;;;;;;;5036112;28;20463;-93
2022/12/04 04:02:28;;;;;;;4.60;4.28;;;;;;;;;;5036157;28;20412;-95
2022/12/04 04:04:57;;;;;;;7.85;7.47;;;;;;;;;;5036045;28;20054;-95
2022/12/04 04:07:26;;;;;;;9.00;8.38;;;;;;;;;;5036144;28;20464;-93
2022/12/04 04:09:56;;;;;;;8.30;7.93;;;;;;;;;;5035931;28;20107;-91
2022/12/04 04:12:26;;;;;;;9.13;8.57;;;;;;;;;;5035566;28;20656;-93
2022/12/04 04:26:00;;;;;;;12.55;11.77;;;;;;;;;;5035407;28;20056;-93
2022/12/04 04:28:32;;;;;;;12.50;11.70;;;;;;;;;;5035247;28;20493;-93
2022/12/04 04:31:04;;;;;;;11.20;10.50;;;;;;;;;;5035474;28;20053;-93
2022/12/04 04:33:31;;;;;;;9.48;8.75;;;;;;;;;;5035586;28;20054;-94
2022/12/04 04:36:02;;;;;;;7.53;6.80;;;;;;;;;;5035202;28;20061;-93
2022/12/04 04:38:31;;;;;;;11.05;10.02;;;;;;;;;;5052171;28;20410;-93
2022/12/04 04:41:00;;;;;;;9.50;8.90;;;;;;;;;;5054996;28;20500;-93
2022/12/04 04:43:30;;;;;;;10.00;9.40;;;;;;;;;;5055361;28;20098;-94
2022/12/04 04:45:59;;;;;;;10.45;9.60;;;;;;;;;;5054960;28;20052;-94
2022/12/04 04:48:29;;;;;;;11.20;10.13;;;;;;;;;;5054912;28;20503;-95
2022/12/04 04:50:56;;;;;;;9.45;8.27;;;;;;;;;;5055119;28;20048;-94
2022/12/04 04:53:25;;;;;;;10.55;9.65;;;;;;;;;;5055071;28;20102;-95
2022/12/04 04:55:52;;;;;;;7.72;6.97;;;;;;;;;;5054966;28;20098;-94
2022/12/04 04:58:20;;;;;;;11.13;10.43;;;;;;;;;;5055072;28;20053;-94
2022/12/04 05:00:50;;;;;;;12.35;11.45;;;;;;;;;;5054704;28;20049;-94
2022/12/04 05:03:18;;;;;;;8.77;8.13;;;;;;;;;;5054961;28;20049;-94
2022/12/04 05:05:44;;;;;;;9.63;8.82;;;;;;;;;;5055061;28;20492;-95
2022/12/04 05:08:11;;;;;;;9.65;8.88;;;;;;;;;;5055169;28;20485;-94
2022/12/04 05:10:38;;;;;;;8.27;7.57;;;;;;;;;;5054387;28;20053;-94
2022/12/04 05:13:04;;;;;;;9.75;9.00;;;;;;;;;;5053945;28;20095;-94
2022/12/04 05:15:31;;;;;;;7.60;7.18;;;;;;;;;;5054212;28;20159;-95
2022/12/04 05:17:57;;;;;;;8.52;7.82;;;;;;;;;;5054389;28;20102;-93
2022/12/04 05:20:25;;;;;;;7.90;7.40;;;;;;;;;;5054408;28;20083;-93
2022/12/04 05:22:52;;;;;;;10.20;9.48;;;;;;;;;;5054043;28;20049;-93
2022/12/04 05:25:18;;;;;;;11.32;10.63;;;;;;;;;;5054606;28;20053;-96
2022/12/04 05:27:45;;;;;;;8.23;7.75;;;;;;;;;;5054186;28;20063;-94
2022/12/04 05:30:11;;;;;;;10.63;9.65;;;;;;;;;;5053976;28;20044;-93
2022/12/04 05:32:38;;;;;;;7.35;6.95;;;;;;;;;;5054171;28;20048;-93
2022/12/04 05:35:05;;;;;;;9.68;8.85;;;;;;;;;;5053974;28;20507;-93
2022/12/04 05:37:35;;;;;;;9.60;8.70;;;;;;;;;;5054266;28;20044;-94
2022/12/04 05:40:02;;;;;;;10.80;10.10;;;;;;;;;;5053913;28;20053;-94
2022/12/04 05:42:29;;;;;;;12.15;11.10;;;;;;;;;;5053808;28;20057;-93
2022/12/04 05:44:55;;;;;;;13.93;12.57;;;;;;;;;;5053676;28;20068;-94
2022/12/04 05:47:22;;;;;;;9.35;8.73;;;;;;;;;;5054067;28;20049;-94
2022/12/04 05:49:48;;;;;;;9.68;8.98;;;;;;;;;;5054046;28;20061;-92
2022/12/04 05:52:15;;;;;;;8.77;8.27;;;;;;;;;;5053792;28;20056;-93
2022/12/04 05:54:43;;;;;;;10.15;9.23;;;;;;;;;;5053922;28;20103;-94
2022/12/04 05:57:09;;;;;;;8.57;7.85;;;;;;;;;;5033875;28;20049;-93
2022/12/04 05:59:36;;;;;;;13.00;12.05;;;;;;;;;;5033591;28;20099;-93
2022/12/04 06:02:03;;;;;;;11.82;11.13;;;;;;;;;;5033937;28;20464;-94
2022/12/04 06:07:13;;;;;;;10.00;9.32;;;;;;;;;;5041833;28;20056;-94
2022/12/04 06:09:40;;;;;;;11.10;10.57;;;;;;;;;;5035539;28;20091;-95
2022/12/04 06:12:08;;;;;;;16.27;10.93;;;;;;;;;;5040110;28;20488;-95
2022/12/04 06:14:35;;;;;;;12.13;10.48;;;;;;;;;;5036884;28;20485;-95
2022/12/04 06:17:01;;;;;;;5.63;5.30;;;;;;;;;;5035652;28;20389;-94
2022/12/04 06:19:28;;;;;;;7.82;7.38;;;;;;;;;;5035952;28;20068;-94
2022/12/04 06:21:54;;;;;;;9.23;8.65;;;;;;;;;;5036794;28;20049;-95
2022/12/04 06:24:22;;;;;;;7.10;6.60;;;;;;;;;;5038321;28;20057;-95
2022/12/04 06:26:49;;;;;;;9.70;9.00;;;;;;;;;;5045861;28;20048;-95
2022/12/04 06:29:17;;;;;;;8.20;7.68;;;;;;;;;;5056067;28;20049;-95
2022/12/04 06:31:43;;;;;;;8.48;7.85;;;;;;;;;;5056191;28;20060;-94
2022/12/04 06:34:10;;;;;;;8.00;7.22;;;;;;;;;;5055842;28;20057;-95
2022/12/04 06:36:37;;;;;;;7.38;6.88;;;;;;;;;;5058040;28;20067;-95
2022/12/04 06:39:04;;;;;;;10.23;9.35;;;;;;;;;;5053691;28;20049;-94
2022/12/04 06:41:30;;;;;;;8.27;7.55;;;;;;;;;;5053392;28;20412;-94
2022/12/04 06:43:57;;;;;;;5.47;5.07;;;;;;;;;;5049779;28;20459;-95
2022/12/04 06:46:26;;;;;;;7.85;7.25;;;;;;;;;;5049746;28;20048;-96
2022/12/04 06:48:54;;;;;;;10.00;9.48;;;;;;;;;;5054826;28;20052;-95
2022/12/04 06:51:21;;;;;;;8.73;8.00;;;;;;;;;;5047235;28;20045;-95
2022/12/04 06:53:51;;;;;;;12.40;11.73;;;;;;;;;;5055225;28;20052;-94
2022/12/04 06:56:19;;;;;;;19.73;14.15;;;;;;;;;;5058665;28;20056;-95
2022/12/04 06:58:46;;;;;;;9.80;9.02;;;;;;;;;;5060832;28;20507;-95
2022/12/04 07:01:15;;;;;;;12.90;11.90;;;;;;;;;;5059350;28;20053;-96
2022/12/04 07:03:43;;;;;;;12.05;11.20;;;;;;;;;;5058713;28;20048;-95
2022/12/04 07:06:13;;;;;;;14.25;10.52;;;;;;;;;;5058717;28;20056;-96
2022/12/04 07:08:40;;;;;;;12.07;11.32;;;;;;;;;;5058155;28;20053;-94
2022/12/04 07:11:07;;;;;;;12.80;11.60;;;;;;;;;;5057572;28;20056;-95
2022/12/04 07:13:33;;;;;;;12.38;10.63;;;;;;;;;;5057231;28;20053;-95
2022/12/04 07:16:01;;;;;;;10.13;9.02;;;;;;;;;;5057321;28;20048;-92
2022/12/04 07:18:27;;;;;;;12.45;11.55;;;;;;;;;;5056670;28;20045;-95
2022/12/04 07:20:56;;;;;;;12.25;11.25;;;;;;;;;;5056922;28;20049;-94
2022/12/04 07:23:22;;;;;;;10.30;9.60;;;;;;;;;;5056696;28;20048;-96
2022/12/04 07:25:49;;;;;;;14.98;13.57;;;;;;;;;;5063514;28;20667;-96
2022/12/04 07:28:16;;;;;;;8.82;8.23;;;;;;;;;;5073549;28;20057;-95
2022/12/04 07:30:43;;;;;;;15.20;12.55;;;;;;;;;;5069208;28;20080;-96
2022/12/04 07:33:10;;;;;;;11.68;10.48;;;;;;;;;;5065607;28;20053;-96
2022/12/04 07:35:36;;;;;;;9.85;8.98;;;;;;;;;;5062604;28;20052;-96
2022/12/04 07:38:04;;;;;;;11.93;10.98;;;;;;;;;;5066293;28;20060;-96
2022/12/04 07:40:32;;;;;;;13.13;11.93;;;;;;;;;;5071622;28;20095;-96
2022/12/04 07:42:58;;;;;;;11.55;10.50;;;;;;;;;;5065137;28;20053;-96
2022/12/04 07:45:25;;;;;;;13.63;12.07;;;;;;;;;;5059349;28;20053;-95
2022/12/04 07:47:52;;;;;;;12.40;9.98;;;;;;;;;;5057478;28;20049;-94
2022/12/04 07:50:18;;;;;;;11.45;10.63;;;;;;;;;;5056888;28;20056;-96
2022/12/04 07:52:45;;;;;;;20.48;16.40;;;;;;;;;;5057049;28;20057;-95
2022/12/04 07:55:13;;;;;;;12.13;11.23;;;;;;;;;;5057324;28;20049;-94
2022/12/04 07:57:40;;;;;;;12.60;11.77;;;;;;;;;;5056219;28;20056;-94
2022/12/04 08:00:07;;;;;;;9.63;8.27;;;;;;;;;;5057452;28;20408;-95
2022/12/04 08:02:33;;;;;;;12.48;11.50;;;;;;;;;;5056085;28;20049;-94
2022/12/04 08:05:00;;;;;;;13.82;12.57;;;;;;;;;;5055827;28;20468;-95
2022/12/04 08:07:27;;;;;;;11.25;10.35;;;;;;;;;;5037982;28;20041;-95
2022/12/04 08:09:53;;;;;;;8.23;7.53;;;;;;;;;;5038858;28;20421;-96
2022/12/04 08:12:21;;;;;;;13.95;10.73;;;;;;;;;;5049952;28;20086;-95
2022/12/04 08:14:49;;;;;;;12.27;11.38;;;;;;;;;;5056983;28;20045;-96
2022/12/04 08:17:21;;;;;;;9.50;8.57;;;;;;;;;;5058657;28;20057;-95
2022/12/04 08:19:48;;;;;;;20.85;12.60;;;;;;;;;;5058341;28;20045;-95
2022/12/04 08:22:14;;;;;;;15.82;14.60;;;;;;;;;;5042032;28;20072;-95
2022/12/04 08:24:41;;;;;;;9.98;9.23;;;;;;;;;;5035815;28;20049;-95
2022/12/04 08:27:07;;;;;;;14.13;13.10;;;;;;;;;;5036430;28;20053;-95
2022/12/04 08:29:36;;;;;;;17.77;16.33;;;;;;;;;;5036064;28;20053;-94
2022/12/04 08:32:03;;;;;;;12.45;11.38;;;;;;;;;;5043215;28;20044;-94
2022/12/04 08:34:30;;;;;;;12.93;11.95;;;;;;;;;;5058500;28;20059;-94
2022/12/04 08:36:56;;;;;;;16.70;12.23;;;;;;;;;;5055518;28;20057;-95
2022/12/04 08:39:23;;;;;;;15.20;13.77;;;;;;;;;;5057661;28;20515;-96
2022/12/04 08:41:50;;;;;;;11.77;10.73;;;;;;;;;;5044444;28;20057;-95
2022/12/04 08:44:16;;;;;;;10.30;9.50;;;;;;;;;;5056637;28;20060;-94
2022/12/04 08:46:44;;;;;;;10.10;9.13;;;;;;;;;;5063219;28;20412;-95
2022/12/04 08:49:11;;;;;;;13.27;12.05;;;;;;;;;;5062616;28;20512;-94
2022/12/04 08:51:38;;;;;;;14.05;12.65;;;;;;;;;;5062789;28;20102;-95
2022/12/04 08:54:05;;;;;;;10.65;9.95;;;;;;;;;;5067439;28;20036;-93
2022/12/04 08:56:32;;;;;;;11.85;10.98;;;;;;;;;;5078286;28;20033;-96
2022/12/04 08:58:59;;;;;;;10.75;10.00;;;;;;;;;;5077928;28;20048;-95
2022/12/04 09:01:26;;;;;;;13.38;12.40;;;;;;;;;;5078760;28;20041;-93
2022/12/04 09:03:54;;;;;;;11.68;10.60;;;;;;;;;;5070411;28;20048;-95
2022/12/04 09:06:21;;;;;;;14.82;13.52;;;;;;;;;;5057890;28;20064;-94
2022/12/04 09:08:48;;;;;;;12.55;11.60;;;;;;;;;;5053365;28;20106;-95
2022/12/04 09:11:16;;;;;;;11.20;10.50;;;;;;;;;;5054410;28;20052;-95
2022/12/04 09:13:43;;;;;;;11.07;10.32;;;;;;;;;;5054097;28;20102;-95
2022/12/04 09:16:11;;;;;;;13.85;9.68;;;;;;;;;;5056134;28;20751;-95
2022/12/04 09:18:38;;;;;;;16.30;12.98;;;;;;;;;;5053912;28;20048;-95
2022/12/04 09:21:07;;;;;;;14.25;12.73;;;;;;;;;;5054763;28;20045;-95
2022/12/04 09:23:34;;;;;;;10.82;9.82;;;;;;;;;;5054623;28;20049;-95
2022/12/04 09:26:00;;;;;;;13.82;12.40;;;;;;;;;;5054648;28;20056;-95
2022/12/04 09:28:27;;;;;;;7.88;7.38;;;;;;;;;;5041340;28;20117;-95
2022/12/04 09:30:57;;;;;;;14.68;13.68;;;;;;;;;;5035266;28;20061;-95
2022/12/04 09:33:24;;;;;;;13.10;12.07;;;;;;;;;;5035232;28;20107;-95
2022/12/04 09:35:51;;;;;;;8.75;8.30;;;;;;;;;;5034476;28;20054;-94
2022/12/04 09:38:19;;;;;;;18.58;17.02;;;;;;;;;;5033838;28;20049;-95
2022/12/04 09:40:48;;;;;;;14.10;13.10;;;;;;;;;;5033694;28;20481;-95
2022/12/04 09:43:21;;;;;;;13.55;12.52;;;;;;;;;;5049396;28;20056;-95
2022/12/04 09:45:51;;;;;;;14.02;13.02;;;;;;;;;;5055081;28;20049;-96
2022/12/04 09:50:59;;;;;;;19.13;13.40;;;;;;;;;;5064820;28;20044;-94
2022/12/04 09:53:29;;;;;;;12.10;11.15;;;;;;;;;;5054824;28;20045;-96
2022/12/04 09:56:01;;;;;;;9.20;8.45;;;;;;;;;;5055044;28;20064;-95
2022/12/04 09:58:32;;;;;;;11.30;10.52;;;;;;;;;;5054227;28;20049;-95
2022/12/04 10:01:01;;;;;;;9.27;8.68;;;;;;;;;;5035565;28;20045;-96
2022/12/04 10:03:28;;;;;;;13.85;12.55;;;;;;;;;;5035146;28;20436;-96
2022/12/04 10:05:57;;;;;;;45.15;34.10;;;;;;;;;;5034262;28;20718;-96
2022/12/04 10:08:25;;;;;;;32.75;25.67;;;;;;;;;;5033881;28;20390;-95
2022/12/04 10:10:58;;;;;;;20.10;18.10;;;;;;;;;;5034370;28;20041;-95
2022/12/04 10:13:35;;;;;;;17.52;13.75;;;;;;;;;;5035083;28;20049;-95
2022/12/04 10:16:06;;;;;;;19.02;17.27;;;;;;;;;;5054114;28;20060;-95
2022/12/04 10:18:41;;;;;;;15.68;14.13;;;;;;;;;;5054745;28;20064;-95
2022/12/04 10:21:31;;;;;;;13.82;12.68;;;;;;;;;;5059646;28;20045;-94
2022/12/04 10:24:06;;;;;;;13.02;12.02;;;;;;;;;;5056701;28;20496;-95
2022/12/04 10:26:36;;;;;;;12.93;11.98;;;;;;;;;;5056057;28;20423;-96
2022/12/04 10:29:06;;;;;;;13.43;12.40;;;;;;;;;;5054899;28;20049;-96
2022/12/04 10:31:35;;;;;;;12.32;10.95;;;;;;;;;;5056679;28;20078;-95
2022/12/04 10:34:03;;;;;;;10.70;9.85;;;;;;;;;;5061263;28;20060;-96
2022/12/04 10:36:31;;;;;;;12.05;10.82;;;;;;;;;;5060203;28;20045;-95
2022/12/04 10:38:59;;;;;;;11.75;10.30;;;;;;;;;;5057562;28;20177;-96
2022/12/04 10:41:28;;;;;;;26.02;23.60;;;;;;;;;;5057046;28;20500;-94
2022/12/04 10:43:56;;;;;;;16.50;15.13;;;;;;;;;;5057263;28;20056;-95
2022/12/04 10:46:24;;;;;;;13.38;12.70;;;;;;;;;;5057813;28;20059;-96
2022/12/04 10:48:52;;;;;;;7.30;5.70;;;;;;;;;;5057642;28;20389;-96
2022/12/04 10:51:21;;;;;;;8.23;7.43;;;;;;;;;;5057484;28;20408;-94
2022/12/04 10:53:48;;;;;;;8.02;6.85;;;;;;;;;;5058417;28;20381;-95
2022/12/04 10:56:16;;;;;;;12.68;11.68;;;;;;;;;;5057208;28;20156;-94
2022/12/04 10:58:43;;;;;;;12.15;11.30;;;;;;;;;;5057241;28;20060;-94
2022/12/04 11:01:14;;;;;;;13.50;12.13;;;;;;;;;;5057203;28;20054;-93
2022/12/04 11:03:40;;;;;;;;;;;;;;;;;;5057697;28;20048;-94
2022/12/04 11:06:09;;;;;;;8.82;8.23;;;;;;;;;;5056308;28;19920;-95
2022/12/04 11:08:37;;;;;;;8.10;7.43;;;;;;;;;;5056862;28;20056;-93
2022/12/04 11:11:06;;;;;;;12.20;11.10;;;;;;;;;;5061249;28;20041;-96
2022/12/04 11:13:33;;;;;;;16.20;14.88;;;;;;;;;;5076444;28;20099;-96
2022/12/04 12:26:43;;;;;;;8.10;7.70;;;;;;;;;;5140245;27;20051;-96
2022/12/04 12:29:14;;;;;;;7.13;6.72;;;;;;;;;;5149520;27;20047;-96
2022/12/04 12:36:52;;;;;;;8.48;7.97;;;;;;;;;;5141117;22;20071;-96
2022/12/04 12:44:30;;;;;;;6.70;6.32;;;;;;;;;;5110616;28;20072;-96
2022/12/04 12:47:02;;;;;;;8.43;7.93;;;;;;;;;;5116596;28;20189;-96
2022/12/04 12:49:31;;;;;;;9.30;8.82;;;;;;;;;;5108856;28;20044;-96
2022/12/04 12:51:59;;;;;;;5.72;5.43;;;;;;;;;;5106661;28;20423;-96
2022/12/04 12:54:30;;;;;;;8.77;8.45;;;;;;;;;;5101202;28;20052;-96
2022/12/04 12:56:57;;;;;;;;;;;;;;;;;;5104645;28;20052;-96
2022/12/04 12:59:25;;;;;;;8.13;7.65;;;;;;;;;;5107880;28;19924;-96
2022/12/04 13:01:56;;;;;;;6.60;6.30;;;;;;;;;;5105355;28;20048;-96
2022/12/04 13:04:28;;;;;;;7.82;7.38;;;;;;;;;;5094070;28;20109;-96
2022/12/04 13:07:00;;;;;;;9.57;9.07;;;;;;;;;;5110187;28;20056;-96
2022/12/04 13:09:30;;;;;;;8.48;8.07;;;;;;;;;;5108942;28;20033;-96
2022/12/04 13:12:01;;;;;;;7.28;5.70;;;;;;;;;;5307044;22;20035;-95
2022/12/04 13:14:28;;;;;;;6.45;6.13;;;;;;;;;;5131312;28;20043;-96
2022/12/04 13:17:05;;;;;;;10.43;9.93;;;;;;;;;;5127952;28;20063;-96
2022/12/04 13:19:34;;;;;;;9.80;6.43;;;;;;;;;;5132019;27;20050;-96
2022/12/04 13:25:16;;;;;;;7.00;6.50;;;;;;;;;;5104649;28;20121;-96
2022/12/04 13:27:50;;;;;;;7.38;7.00;;;;;;;;;;5091853;28;20051;-96
2022/12/04 13:30:18;;;;;;;5.65;5.35;;;;;;;;;;5089648;28;20049;-96
2022/12/04 13:33:13;;;;;;;6.40;6.10;;;;;;;;;;5093640;28;20040;-96
2022/12/04 13:35:54;;;;;;;6.95;6.57;;;;;;;;;;5113378;28;20043;-96
2022/12/04 13:38:27;;;;;;;6.60;6.30;;;;;;;;;;5233861;22;20517;-96
2022/12/04 13:40:55;;;;;;;6.00;5.70;;;;;;;;;;5127285;28;20054;-96
2022/12/04 13:43:28;;;;;;;6.75;6.35;;;;;;;;;;5132161;28;20035;-96
2022/12/04 13:45:55;;;;;;;6.93;6.57;;;;;;;;;;5127598;28;20094;-96
2022/12/04 13:48:35;;;;;;;7.50;6.90;;;;;;;;;;5123759;28;20051;-96
2022/12/04 13:51:03;;;;;;;5.88;5.57;;;;;;;;;;5125783;28;20071;-96
2022/12/04 13:53:31;;;;;;;5.97;5.68;;;;;;;;;;5130779;28;20063;-95
2022/12/04 13:55:59;;;;;;;4.82;4.53;;;;;;;;;;5126607;28;20100;-94
2022/12/04 13:58:27;;;;;;;6.72;6.15;;;;;;;;;;5122332;28;20043;-94
2022/12/04 14:01:00;;;;;;;6.03;5.72;;;;;;;;;;5105362;28;20048;-95
2022/12/04 14:43:09;;;;;;;6.93;6.55;;;;;;;;;;2828965;22;20310;-92
2022/12/04 14:45:43;;;;;;;5.05;4.78;;;;;;;;;;5113252;28;20524;-96
2022/12/04 14:48:22;;;;;;;4.65;4.45;;;;;;;;;;5114701;28;20626;-94
2022/12/04 14:50:52;;;;;;;4.43;4.22;;;;;;;;;;5114417;28;20482;-94
2022/12/04 14:53:23;;;;;;;3.67;3.47;;;;;;;;;;5113869;28;20051;-93
2022/12/04 14:55:52;;;;;;;5.72;5.38;;;;;;;;;;5114424;28;20055;-96
2022/12/04 14:58:33;;;;;;;5.25;4.95;;;;;;;;;;5114377;28;20130;-93
2022/12/04 15:01:02;;;;;;;5.65;5.35;;;;;;;;;;5114356;28;20043;-93
2022/12/04 15:03:30;;;;;;;4.88;4.68;;;;;;;;;;5114294;28;20052;-93
2022/12/04 15:06:04;;;;;;;4.70;4.40;;;;;;;;;;5114223;28;20063;-93
2022/12/04 15:08:30;;;;;;;5.30;5.00;;;;;;;;;;5116667;28;20044;-94
2022/12/04 15:13:41;;;;;;;5.45;5.15;;;;;;;;;;5118060;28;20093;-90
2022/12/04 15:16:15;;;;;;;5.28;4.93;;;;;;;;;;5114092;28;20047;-95
2022/12/04 15:18:52;;;;;;;5.82;5.53;;;;;;;;;;5105771;28;20055;-93
2022/12/04 15:21:19;;;;;;;5.63;5.32;;;;;;;;;;5105420;28;20436;-94
2022/12/04 15:23:46;;;;;;;13.38;10.35;;;;;;;;;;5116904;28;20447;-94
2022/12/04 15:26:14;;;;;;;5.25;5.00;;;;;;;;;;5118366;28;20048;-93
2022/12/04 15:28:42;;;;;;;9.55;8.95;;;;;;;;;;5117998;28;20048;-93
2022/12/04 15:31:12;;;;;;;5.07;4.78;;;;;;;;;;5101807;28;20126;-94
2022/12/04 15:33:40;;;;;;;3.78;3.45;;;;;;;;;;5097966;28;20052;-94
2022/12/04 15:36:09;;;;;;;5.15;4.85;;;;;;;;;;5097807;28;20055;-94
2022/12/04 15:38:36;;;;;;;4.32;4.13;;;;;;;;;;5099014;28;20494;-93
2022/12/04 15:41:02;;;;;;;4.63;4.43;;;;;;;;;;5118558;28;20539;-93
2022/12/04 15:43:30;;;;;;;3.88;3.72;;;;;;;;;;5118230;28;20423;-94
2022/12/04 15:45:57;;;;;;;4.60;4.30;;;;;;;;;;5118308;28;20055;-93
2022/12/04 15:48:24;;;;;;;5.15;4.82;;;;;;;;;;5118146;28;20487;-93
2022/12/04 15:50:57;;;;;;;6.25;5.95;;;;;;;;;;5117156;28;20509;-93
2022/12/04 15:53:26;;;;;;;4.60;4.30;;;;;;;;;;5117183;28;20044;-93
2022/12/04 15:55:54;;;;;;;4.13;3.92;;;;;;;;;;5117888;28;20047;-93
2022/12/04 15:58:22;;;;;;;6.07;5.78;;;;;;;;;;5117364;28;20116;-93
2022/12/04 16:00:54;;;;;;;4.30;4.10;;;;;;;;;;5117094;28;20582;-93
2022/12/04 16:03:23;;;;;;;5.60;5.22;;;;;;;;;;5117356;28;20104;-93
2022/12/04 16:05:49;;;;;;;5.78;5.35;;;;;;;;;;5117164;28;20517;-94
2022/12/04 16:08:25;;;;;;;4.43;4.13;;;;;;;;;;5116571;28;20051;-96
2022/12/04 16:10:58;;;;;;;3.40;3.30;;;;;;;;;;5117689;28;20039;-93
2022/12/04 16:13:27;;;;;;;6.57;6.28;;;;;;;;;;5117433;28;20047;-94
2022/12/04 16:15:56;;;;;;;3.88;3.67;;;;;;;;;;5118357;28;20107;-94
2022/12/04 16:18:22;;;;;;;3.50;3.20;;;;;;;;;;5117184;28;20406;-94
2022/12/04 16:20:49;;;;;;;4.65;4.38;;;;;;;;;;5116322;28;20044;-95
2022/12/04 16:23:16;;;;;;;5.47;5.18;;;;;;;;;;5116393;28;20448;-94
2022/12/04 16:25:44;;;;;;;4.63;4.35;;;;;;;;;;5116432;28;20051;-94
2022/12/04 16:28:10;;;;;;;3.70;3.50;;;;;;;;;;5116298;28;20044;-94
2022/12/04 16:30:37;;;;;;;4.57;4.28;;;;;;;;;;5116101;28;20077;-93
2022/12/04 16:33:03;;;;;;;6.68;6.35;;;;;;;;;;5098754;28;20051;-94
2022/12/04 16:35:30;;;;;;;5.75;5.45;;;;;;;;;;5095813;28;20097;-95
2022/12/04 16:37:57;;;;;;;4.63;4.22;;;;;;;;;;5096122;28;20097;-94
2022/12/04 16:40:23;;;;;;;9.63;9.02;;;;;;;;;;5096068;28;20060;-93
2022/12/04 16:42:51;;;;;;;6.32;5.93;;;;;;;;;;5096517;28;20169;-93
2022/12/04 16:45:21;;;;;;;5.78;5.47;;;;;;;;;;5096511;28;20056;-93
2022/12/04 16:47:48;;;;;;;7.57;6.95;;;;;;;;;;5096223;28;20051;-93
2022/12/04 16:50:14;;;;;;;7.35;7.03;;;;;;;;;;5096345;28;20120;-92
2022/12/04 16:52:41;;;;;;;6.68;6.30;;;;;;;;;;5096702;28;20121;-93
2022/12/04 16:55:13;;;;;;;5.68;5.30;;;;;;;;;;5095821;28;20048;-93
2022/12/04 16:57:40;;;;;;;4.22;4.03;;;;;;;;;;5096121;28;20048;-95
2022/12/04 17:00:11;;;;;;;4.35;4.15;;;;;;;;;;5095381;28;20052;-94
2022/12/04 17:02:37;;;;;;;5.72;5.32;;;;;;;;;;5095505;28;20045;-93
2022/12/04 17:05:04;;;;;;;5.63;5.30;;;;;;;;;;5095353;28;20044;-94